sensor_id;sensor_type;location;lat;lon;timestamp;temperature;humidity
79489;SHT31;68949;53.176;18.088;2023-05-10T00:00:48;9.48;49.08
79489;SHT31;68949;53.176;18.088;2023-05-10T00:03:15;9.44;49.23
79489;SHT31;68949;53.176;18.088;2023-05-10T00:05:41;9.42;49.36
79489;SHT31;68949;53.176;18.088;2023-05-10T00:08:08;9.40;49.30
79489;SHT31;68949;53.176;18.088;2023-05-10T00:10:35;9.37;49.41
79489;SHT31;68949;53.176;18.088;2023-05-10T00:13:03;9.35;49.48
79489;SHT31;68949;53.176;18.088;2023-05-10T00:15:30;9.34;49.71
79489;SHT31;68949;53.176;18.088;2023-05-10T00:17:57;9.31;49.72
79489;SHT31;68949;53.176;18.088;2023-05-10T00:20:24;9.29;49.72
79489;SHT31;68949;53.176;18.088;2023-05-10T00:22:50;9.28;49.95
79489;SHT31;68949;53.176;18.088;2023-05-10T00:25:17;9.26;50.02
79489;SHT31;68949;53.176;18.088;2023-05-10T00:27:44;9.23;50.02
79489;SHT31;68949;53.176;18.088;2023-05-10T00:30:11;9.21;50.04
79489;SHT31;68949;53.176;18.088;2023-05-10T00:32:38;9.19;50.18
79489;SHT31;68949;53.176;18.088;2023-05-10T00:35:04;9.15;50.34
79489;SHT31;68949;53.176;18.088;2023-05-10T00:37:32;9.12;50.37
79489;SHT31;68949;53.176;18.088;2023-05-10T00:39:59;9.10;50.48
79489;SHT31;68949;53.176;18.088;2023-05-10T00:42:27;9.08;50.56
79489;SHT31;68949;53.176;18.088;2023-05-10T00:44:54;9.04;50.74
79489;SHT31;68949;53.176;18.088;2023-05-10T00:47:20;9.01;50.78
79489;SHT31;68949;53.176;18.088;2023-05-10T00:49:48;8.98;50.84
79489;SHT31;68949;53.176;18.088;2023-05-10T00:52:15;8.95;50.96
79489;SHT31;68949;53.176;18.088;2023-05-10T00:54:42;8.93;50.98
79489;SHT31;68949;53.176;18.088;2023-05-10T00:57:09;8.92;51.00
79489;SHT31;68949;53.176;18.088;2023-05-10T00:59:36;8.89;51.15
79489;SHT31;68949;53.176;18.088;2023-05-10T01:02:03;8.86;51.24
79489;SHT31;68949;53.176;18.088;2023-05-10T01:04:30;8.84;51.24
79489;SHT31;68949;53.176;18.088;2023-05-10T01:06:57;8.81;51.41
79489;SHT31;68949;53.176;18.088;2023-05-10T01:09:24;8.80;51.40
79489;SHT31;68949;53.176;18.088;2023-05-10T01:11:52;8.79;51.40
79489;SHT31;68949;53.176;18.088;2023-05-10T01:14:21;8.77;51.46
79489;SHT31;68949;53.176;18.088;2023-05-10T01:16:48;8.76;51.54
79489;SHT31;68949;53.176;18.088;2023-05-10T01:19:23;8.74;51.64
79489;SHT31;68949;53.176;18.088;2023-05-10T01:28:28;8.66;51.88
79489;SHT31;68949;53.176;18.088;2023-05-10T01:34:20;8.55;52.10
79489;SHT31;68949;53.176;18.088;2023-05-10T01:36:55;8.52;52.32
79489;SHT31;68949;53.176;18.088;2023-05-10T01:39:46;8.48;52.52
79489;SHT31;68949;53.176;18.088;2023-05-10T01:42:25;8.48;52.55
79489;SHT31;68949;53.176;18.088;2023-05-10T01:45:02;8.45;52.59
79489;SHT31;68949;53.176;18.088;2023-05-10T01:47:37;8.44;52.65
79489;SHT31;68949;53.176;18.088;2023-05-10T01:50:15;8.41;52.81
79489;SHT31;68949;53.176;18.088;2023-05-10T01:52:53;8.37;52.86
79489;SHT31;68949;53.176;18.088;2023-05-10T01:55:24;8.35;53.06
79489;SHT31;68949;53.176;18.088;2023-05-10T01:58:04;8.32;53.12
79489;SHT31;68949;53.176;18.088;2023-05-10T02:00:35;8.28;53.24
79489;SHT31;68949;53.176;18.088;2023-05-10T02:03:09;8.24;53.32
79489;SHT31;68949;53.176;18.088;2023-05-10T02:05:38;8.21;53.47
79489;SHT31;68949;53.176;18.088;2023-05-10T02:08:07;8.19;53.48
79489;SHT31;68949;53.176;18.088;2023-05-10T02:10:37;8.16;53.48
79489;SHT31;68949;53.176;18.088;2023-05-10T02:13:05;8.15;53.60
79489;SHT31;68949;53.176;18.088;2023-05-10T02:15:34;8.12;53.66
79489;SHT31;68949;53.176;18.088;2023-05-10T02:18:04;8.09;53.73
79489;SHT31;68949;53.176;18.088;2023-05-10T02:20:33;8.05;53.87
79489;SHT31;68949;53.176;18.088;2023-05-10T02:23:01;8.03;53.86
79489;SHT31;68949;53.176;18.088;2023-05-10T02:25:30;8.01;53.93
79489;SHT31;68949;53.176;18.088;2023-05-10T02:27:59;7.99;53.95
79489;SHT31;68949;53.176;18.088;2023-05-10T02:30:32;7.97;54.06
79489;SHT31;68949;53.176;18.088;2023-05-10T02:33:01;7.94;54.10
79489;SHT31;68949;53.176;18.088;2023-05-10T02:35:31;7.90;54.22
79489;SHT31;68949;53.176;18.088;2023-05-10T02:37:59;7.88;54.24
79489;SHT31;68949;53.176;18.088;2023-05-10T02:40:29;7.85;54.31
79489;SHT31;68949;53.176;18.088;2023-05-10T02:42:57;7.83;54.42
79489;SHT31;68949;53.176;18.088;2023-05-10T02:45:29;7.80;54.45
79489;SHT31;68949;53.176;18.088;2023-05-10T02:47:58;7.79;54.44
79489;SHT31;68949;53.176;18.088;2023-05-10T02:50:27;7.77;54.48
79489;SHT31;68949;53.176;18.088;2023-05-10T02:53:03;7.75;54.46
79489;SHT31;68949;53.176;18.088;2023-05-10T02:55:38;7.74;54.61
79489;SHT31;68949;53.176;18.088;2023-05-10T02:58:08;7.71;54.66
79489;SHT31;68949;53.176;18.088;2023-05-10T03:00:35;7.68;54.75
79489;SHT31;68949;53.176;18.088;2023-05-10T03:03:03;7.69;54.82
79489;SHT31;68949;53.176;18.088;2023-05-10T03:05:29;7.71;54.72
79489;SHT31;68949;53.176;18.088;2023-05-10T03:07:58;7.73;54.74
79489;SHT31;68949;53.176;18.088;2023-05-10T03:10:29;7.76;54.58
79489;SHT31;68949;53.176;18.088;2023-05-10T03:13:13;7.78;54.63
79489;SHT31;68949;53.176;18.088;2023-05-10T03:15:59;7.79;54.61
79489;SHT31;68949;53.176;18.088;2023-05-10T03:19:14;7.81;54.48
79489;SHT31;68949;53.176;18.088;2023-05-10T03:21:50;7.90;54.54
79489;SHT31;68949;53.176;18.088;2023-05-10T03:24:21;8.27;53.98
79489;SHT31;68949;53.176;18.088;2023-05-10T03:26:53;8.53;53.41
79489;SHT31;68949;53.176;18.088;2023-05-10T03:29:25;8.51;53.31
79489;SHT31;68949;53.176;18.088;2023-05-10T03:31:54;8.60;53.27
79489;SHT31;68949;53.176;18.088;2023-05-10T03:34:24;8.99;52.51
79489;SHT31;68949;53.176;18.088;2023-05-10T03:36:52;9.57;51.62
79489;SHT31;68949;53.176;18.088;2023-05-10T03:39:19;10.20;50.63
79489;SHT31;68949;53.176;18.088;2023-05-10T03:41:50;10.76;49.63
79489;SHT31;68949;53.176;18.088;2023-05-10T03:44:17;11.21;48.78
79489;SHT31;68949;53.176;18.088;2023-05-10T03:46:44;11.62;48.09
79489;SHT31;68949;53.176;18.088;2023-05-10T03:49:10;11.95;47.18
79489;SHT31;68949;53.176;18.088;2023-05-10T03:51:38;12.30;46.62
79489;SHT31;68949;53.176;18.088;2023-05-10T03:54:04;12.62;46.10
79489;SHT31;68949;53.176;18.088;2023-05-10T03:56:31;12.99;45.78
79489;SHT31;68949;53.176;18.088;2023-05-10T03:58:59;13.19;44.91
79489;SHT31;68949;53.176;18.088;2023-05-10T04:01:27;13.38;44.70
79489;SHT31;68949;53.176;18.088;2023-05-10T04:03:53;13.59;43.94
79489;SHT31;68949;53.176;18.088;2023-05-10T04:06:20;13.79;43.20
79489;SHT31;68949;53.176;18.088;2023-05-10T04:08:47;13.92;42.91
79489;SHT31;68949;53.176;18.088;2023-05-10T04:11:14;14.12;42.87
79489;SHT31;68949;53.176;18.088;2023-05-10T04:13:40;14.25;42.41
79489;SHT31;68949;53.176;18.088;2023-05-10T04:16:09;14.38;42.26
79489;SHT31;68949;53.176;18.088;2023-05-10T04:18:35;14.57;41.86
79489;SHT31;68949;53.176;18.088;2023-05-10T04:21:02;14.75;41.60
79489;SHT31;68949;53.176;18.088;2023-05-10T04:23:29;14.82;41.12
79489;SHT31;68949;53.176;18.088;2023-05-10T04:25:59;14.94;40.85
79489;SHT31;68949;53.176;18.088;2023-05-10T04:28:27;15.11;40.58
79489;SHT31;68949;53.176;18.088;2023-05-10T04:31:00;15.25;40.48
79489;SHT31;68949;53.176;18.088;2023-05-10T04:33:32;15.28;39.81
79489;SHT31;68949;53.176;18.088;2023-05-10T04:35:59;15.32;39.67
79489;SHT31;68949;53.176;18.088;2023-05-10T04:38:27;15.42;39.69
79489;SHT31;68949;53.176;18.088;2023-05-10T04:40:54;15.56;39.49
79489;SHT31;68949;53.176;18.088;2023-05-10T04:43:21;15.66;38.99
79489;SHT31;68949;53.176;18.088;2023-05-10T04:45:47;15.75;38.90
79489;SHT31;68949;53.176;18.088;2023-05-10T04:48:14;15.79;38.82
79489;SHT31;68949;53.176;18.088;2023-05-10T04:50:41;15.85;38.01
79489;SHT31;68949;53.176;18.088;2023-05-10T04:53:08;15.71;38.08
79489;SHT31;68949;53.176;18.088;2023-05-10T04:55:35;15.76;38.12
79489;SHT31;68949;53.176;18.088;2023-05-10T04:58:02;15.92;38.02
79489;SHT31;68949;53.176;18.088;2023-05-10T05:00:29;16.04;37.81
79489;SHT31;68949;53.176;18.088;2023-05-10T05:02:55;15.99;37.78
79489;SHT31;68949;53.176;18.088;2023-05-10T05:05:22;16.00;37.52
79489;SHT31;68949;53.176;18.088;2023-05-10T05:07:49;15.99;37.35
79489;SHT31;68949;53.176;18.088;2023-05-10T05:10:16;15.99;37.36
79489;SHT31;68949;53.176;18.088;2023-05-10T05:12:43;16.04;37.56
79489;SHT31;68949;53.176;18.088;2023-05-10T05:15:10;16.11;37.50
79489;SHT31;68949;53.176;18.088;2023-05-10T05:17:37;16.11;37.49
79489;SHT31;68949;53.176;18.088;2023-05-10T05:20:04;16.07;37.46
79489;SHT31;68949;53.176;18.088;2023-05-10T05:22:32;16.11;37.53
79489;SHT31;68949;53.176;18.088;2023-05-10T05:24:58;16.20;37.19
79489;SHT31;68949;53.176;18.088;2023-05-10T05:27:25;16.26;37.27
79489;SHT31;68949;53.176;18.088;2023-05-10T05:29:59;16.33;37.07
79489;SHT31;68949;53.176;18.088;2023-05-10T05:32:26;16.21;36.82
79489;SHT31;68949;53.176;18.088;2023-05-10T05:34:52;16.11;36.98
79489;SHT31;68949;53.176;18.088;2023-05-10T05:37:19;16.17;37.10
79489;SHT31;68949;53.176;18.088;2023-05-10T05:39:51;16.16;37.02
79489;SHT31;68949;53.176;18.088;2023-05-10T05:42:18;16.19;37.12
79489;SHT31;68949;53.176;18.088;2023-05-10T05:44:45;16.24;36.86
79489;SHT31;68949;53.176;18.088;2023-05-10T05:47:11;16.26;36.95
79489;SHT31;68949;53.176;18.088;2023-05-10T05:49:38;16.27;36.93
79489;SHT31;68949;53.176;18.088;2023-05-10T05:52:05;16.26;37.01
79489;SHT31;68949;53.176;18.088;2023-05-10T05:54:32;16.36;37.05
79489;SHT31;68949;53.176;18.088;2023-05-10T05:56:59;16.45;36.77
79489;SHT31;68949;53.176;18.088;2023-05-10T05:59:28;16.40;36.70
79489;SHT31;68949;53.176;18.088;2023-05-10T06:01:55;16.43;36.76
79489;SHT31;68949;53.176;18.088;2023-05-10T06:04:21;16.43;36.70
79489;SHT31;68949;53.176;18.088;2023-05-10T06:06:48;16.48;36.57
79489;SHT31;68949;53.176;18.088;2023-05-10T06:09:15;16.49;36.33
79489;SHT31;68949;53.176;18.088;2023-05-10T06:11:42;16.47;36.76
79489;SHT31;68949;53.176;18.088;2023-05-10T06:14:09;16.55;36.86
79489;SHT31;68949;53.176;18.088;2023-05-10T06:16:35;16.55;37.04
79489;SHT31;68949;53.176;18.088;2023-05-10T06:19:04;16.67;36.55
79489;SHT31;68949;53.176;18.088;2023-05-10T06:21:31;16.73;36.51
79489;SHT31;68949;53.176;18.088;2023-05-10T06:23:58;16.71;36.62
79489;SHT31;68949;53.176;18.088;2023-05-10T06:26:24;16.69;36.59
79489;SHT31;68949;53.176;18.088;2023-05-10T06:28:51;16.65;36.61
79489;SHT31;68949;53.176;18.088;2023-05-10T06:31:18;16.67;36.73
79489;SHT31;68949;53.176;18.088;2023-05-10T06:33:45;16.66;36.29
79489;SHT31;68949;53.176;18.088;2023-05-10T06:36:12;16.59;36.98
79489;SHT31;68949;53.176;18.088;2023-05-10T06:38:39;16.66;36.84
79489;SHT31;68949;53.176;18.088;2023-05-10T06:41:06;16.64;36.63
79489;SHT31;68949;53.176;18.088;2023-05-10T06:43:33;16.57;36.39
79489;SHT31;68949;53.176;18.088;2023-05-10T06:46:00;16.45;36.64
79489;SHT31;68949;53.176;18.088;2023-05-10T06:48:26;16.38;36.39
79489;SHT31;68949;53.176;18.088;2023-05-10T06:50:53;16.31;36.14
79489;SHT31;68949;53.176;18.088;2023-05-10T06:53:20;16.27;36.00
79489;SHT31;68949;53.176;18.088;2023-05-10T06:55:48;16.28;35.72
79489;SHT31;68949;53.176;18.088;2023-05-10T06:58:15;16.37;36.51
79489;SHT31;68949;53.176;18.088;2023-05-10T07:00:42;16.45;36.61
79489;SHT31;68949;53.176;18.088;2023-05-10T07:03:10;16.56;36.60
79489;SHT31;68949;53.176;18.088;2023-05-10T07:05:36;16.71;36.72
79489;SHT31;68949;53.176;18.088;2023-05-10T07:08:03;16.86;36.06
79489;SHT31;68949;53.176;18.088;2023-05-10T07:10:30;16.89;35.27
79489;SHT31;68949;53.176;18.088;2023-05-10T07:12:57;16.89;34.93
79489;SHT31;68949;53.176;18.088;2023-05-10T07:15:23;16.91;34.97
79489;SHT31;68949;53.176;18.088;2023-05-10T07:17:50;16.89;34.90
79489;SHT31;68949;53.176;18.088;2023-05-10T07:20:18;16.91;34.61
79489;SHT31;68949;53.176;18.088;2023-05-10T07:22:45;16.96;34.19
79489;SHT31;68949;53.176;18.088;2023-05-10T07:25:11;17.01;34.12
79489;SHT31;68949;53.176;18.088;2023-05-10T07:27:38;17.03;34.04
79489;SHT31;68949;53.176;18.088;2023-05-10T07:30:05;17.05;33.70
79489;SHT31;68949;53.176;18.088;2023-05-10T07:32:33;17.06;34.36
79489;SHT31;68949;53.176;18.088;2023-05-10T07:35:00;17.20;35.22
79489;SHT31;68949;53.176;18.088;2023-05-10T07:37:26;17.37;35.15
79489;SHT31;68949;53.176;18.088;2023-05-10T07:39:53;17.52;34.72
79489;SHT31;68949;53.176;18.088;2023-05-10T07:42:20;17.62;34.15
79489;SHT31;68949;53.176;18.088;2023-05-10T07:44:46;17.67;34.19
79489;SHT31;68949;53.176;18.088;2023-05-10T07:47:13;17.75;34.09
79489;SHT31;68949;53.176;18.088;2023-05-10T07:49:40;17.87;33.82
79489;SHT31;68949;53.176;18.088;2023-05-10T07:52:07;17.97;33.99
79489;SHT31;68949;53.176;18.088;2023-05-10T07:54:33;18.07;33.67
79489;SHT31;68949;53.176;18.088;2023-05-10T07:57:00;18.16;33.56
79489;SHT31;68949;53.176;18.088;2023-05-10T07:59:27;18.20;32.98
79489;SHT31;68949;53.176;18.088;2023-05-10T08:01:54;18.22;32.96
79489;SHT31;68949;53.176;18.088;2023-05-10T08:04:20;18.23;31.77
79489;SHT31;68949;53.176;18.088;2023-05-10T08:06:47;18.19;32.27
79489;SHT31;68949;53.176;18.088;2023-05-10T08:09:14;18.24;32.41
79489;SHT31;68949;53.176;18.088;2023-05-10T08:11:40;18.24;31.67
79489;SHT31;68949;53.176;18.088;2023-05-10T08:14:07;18.23;31.74
79489;SHT31;68949;53.176;18.088;2023-05-10T08:16:34;18.24;31.43
79489;SHT31;68949;53.176;18.088;2023-05-10T08:19:05;18.22;31.64
79489;SHT31;68949;53.176;18.088;2023-05-10T08:21:32;18.21;31.08
79489;SHT31;68949;53.176;18.088;2023-05-10T08:23:58;18.23;31.05
79489;SHT31;68949;53.176;18.088;2023-05-10T08:26:25;18.17;30.70
79489;SHT31;68949;53.176;18.088;2023-05-10T08:28:52;18.21;31.88
79489;SHT31;68949;53.176;18.088;2023-05-10T08:31:19;18.36;32.05
79489;SHT31;68949;53.176;18.088;2023-05-10T08:33:46;18.47;31.99
79489;SHT31;68949;53.176;18.088;2023-05-10T08:36:13;18.53;31.32
79489;SHT31;68949;53.176;18.088;2023-05-10T08:38:41;18.52;31.41
79489;SHT31;68949;53.176;18.088;2023-05-10T08:41:08;18.62;31.95
79489;SHT31;68949;53.176;18.088;2023-05-10T08:43:36;18.71;30.95
79489;SHT31;68949;53.176;18.088;2023-05-10T08:46:04;18.68;30.38
79489;SHT31;68949;53.176;18.088;2023-05-10T08:48:34;18.67;30.29
79489;SHT31;68949;53.176;18.088;2023-05-10T08:51:06;18.68;30.19
79489;SHT31;68949;53.176;18.088;2023-05-10T08:53:39;18.68;30.75
79489;SHT31;68949;53.176;18.088;2023-05-10T08:56:06;18.74;31.05
79489;SHT31;68949;53.176;18.088;2023-05-10T08:58:33;18.79;30.31
79489;SHT31;68949;53.176;18.088;2023-05-10T09:01:00;18.84;30.58
79489;SHT31;68949;53.176;18.088;2023-05-10T09:03:27;18.97;31.56
79489;SHT31;68949;53.176;18.088;2023-05-10T09:05:54;19.18;31.68
79489;SHT31;68949;53.176;18.088;2023-05-10T09:08:24;19.25;29.76
79489;SHT31;68949;53.176;18.088;2023-05-10T09:10:54;19.19;29.74
79489;SHT31;68949;53.176;18.088;2023-05-10T09:13:26;19.23;30.06
79489;SHT31;68949;53.176;18.088;2023-05-10T09:15:58;19.32;30.58
79489;SHT31;68949;53.176;18.088;2023-05-10T09:18:25;19.38;30.51
79489;SHT31;68949;53.176;18.088;2023-05-10T09:20:52;19.44;30.83
79489;SHT31;68949;53.176;18.088;2023-05-10T09:23:18;19.58;31.11
79489;SHT31;68949;53.176;18.088;2023-05-10T09:25:46;19.68;30.26
79489;SHT31;68949;53.176;18.088;2023-05-10T09:28:13;19.62;29.66
79489;SHT31;68949;53.176;18.088;2023-05-10T09:30:39;19.60;30.21
79489;SHT31;68949;53.176;18.088;2023-05-10T09:33:06;19.60;29.96
79489;SHT31;68949;53.176;18.088;2023-05-10T09:35:34;19.66;30.12
79489;SHT31;68949;53.176;18.088;2023-05-10T09:38:03;19.67;29.81
79489;SHT31;68949;53.176;18.088;2023-05-10T09:40:31;19.68;29.91
79489;SHT31;68949;53.176;18.088;2023-05-10T09:43:17;19.67;29.55
79489;SHT31;68949;53.176;18.088;2023-05-10T09:45:44;19.75;30.42
79489;SHT31;68949;53.176;18.088;2023-05-10T09:48:16;19.80;29.62
79489;SHT31;68949;53.176;18.088;2023-05-10T09:50:43;19.84;29.88
79489;SHT31;68949;53.176;18.088;2023-05-10T09:53:09;19.86;29.34
79489;SHT31;68949;53.176;18.088;2023-05-10T09:58:13;19.95;30.45
79489;SHT31;68949;53.176;18.088;2023-05-10T10:00:41;20.12;31.05
79489;SHT31;68949;53.176;18.088;2023-05-10T10:03:14;20.22;30.03
79489;SHT31;68949;53.176;18.088;2023-05-10T10:05:43;20.21;30.31
79489;SHT31;68949;53.176;18.088;2023-05-10T10:08:12;20.23;29.59
79489;SHT31;68949;53.176;18.088;2023-05-10T10:10:40;20.17;29.64
79489;SHT31;68949;53.176;18.088;2023-05-10T10:13:08;20.08;29.49
79489;SHT31;68949;53.176;18.088;2023-05-10T10:15:35;20.05;29.28
79489;SHT31;68949;53.176;18.088;2023-05-10T10:18:02;20.06;29.21
79489;SHT31;68949;53.176;18.088;2023-05-10T10:20:32;20.14;30.37
79489;SHT31;68949;53.176;18.088;2023-05-10T10:22:59;20.29;30.64
79489;SHT31;68949;53.176;18.088;2023-05-10T10:25:26;20.35;30.25
79489;SHT31;68949;53.176;18.088;2023-05-10T10:30:27;20.28;29.12
79489;SHT31;68949;53.176;18.088;2023-05-10T10:36:13;20.05;29.25
79489;SHT31;68949;53.176;18.088;2023-05-10T10:41:30;20.03;29.61
79489;SHT31;68949;53.176;18.088;2023-05-10T10:44:24;20.07;29.79
79489;SHT31;68949;53.176;18.088;2023-05-10T10:47:06;20.09;30.23
79489;SHT31;68949;53.176;18.088;2023-05-10T10:52:27;20.08;30.29
79489;SHT31;68949;53.176;18.088;2023-05-10T10:57:35;20.20;30.45
79489;SHT31;68949;53.176;18.088;2023-05-10T11:00:18;20.28;30.79
79489;SHT31;68949;53.176;18.088;2023-05-10T11:02:57;20.28;30.72
79489;SHT31;68949;53.176;18.088;2023-05-10T11:13:47;20.39;30.62
79489;SHT31;68949;53.176;18.088;2023-05-10T11:16:16;20.40;30.11
79489;SHT31;68949;53.176;18.088;2023-05-10T11:21:20;20.50;30.06
79489;SHT31;68949;53.176;18.088;2023-05-10T11:23:51;20.43;30.10
79489;SHT31;68949;53.176;18.088;2023-05-10T11:26:25;20.38;29.74
79489;SHT31;68949;53.176;18.088;2023-05-10T11:28:57;20.33;29.73
79489;SHT31;68949;53.176;18.088;2023-05-10T11:31:28;20.25;30.31
79489;SHT31;68949;53.176;18.088;2023-05-10T11:33:56;20.18;29.57
79489;SHT31;68949;53.176;18.088;2023-05-10T11:36:33;20.18;29.94
79489;SHT31;68949;53.176;18.088;2023-05-10T11:39:02;20.24;30.50
79489;SHT31;68949;53.176;18.088;2023-05-10T11:41:30;20.29;29.82
79489;SHT31;68949;53.176;18.088;2023-05-10T11:43:58;20.30;28.90
79489;SHT31;68949;53.176;18.088;2023-05-10T11:46:26;20.21;28.83
79489;SHT31;68949;53.176;18.088;2023-05-10T11:48:57;20.22;29.67
79489;SHT31;68949;53.176;18.088;2023-05-10T11:51:27;20.30;29.53
79489;SHT31;68949;53.176;18.088;2023-05-10T11:53:55;20.35;29.85
79489;SHT31;68949;53.176;18.088;2023-05-10T11:56:23;20.40;29.45
79489;SHT31;68949;53.176;18.088;2023-05-10T11:58:56;20.43;29.27
79489;SHT31;68949;53.176;18.088;2023-05-10T12:01:25;20.36;28.61
79489;SHT31;68949;53.176;18.088;2023-05-10T12:03:57;20.38;30.06
79489;SHT31;68949;53.176;18.088;2023-05-10T12:06:26;20.42;29.58
79489;SHT31;68949;53.176;18.088;2023-05-10T12:09:02;20.42;28.93
79489;SHT31;68949;53.176;18.088;2023-05-10T12:11:46;20.39;29.09
79489;SHT31;68949;53.176;18.088;2023-05-10T12:14:13;20.37;27.66
79489;SHT31;68949;53.176;18.088;2023-05-10T12:16:42;20.29;27.55
79489;SHT31;68949;53.176;18.088;2023-05-10T12:19:10;20.21;28.23
79489;SHT31;68949;53.176;18.088;2023-05-10T12:21:36;20.19;28.43
79489;SHT31;68949;53.176;18.088;2023-05-10T12:24:05;20.20;28.87
79489;SHT31;68949;53.176;18.088;2023-05-10T12:26:31;20.26;28.08
79489;SHT31;68949;53.176;18.088;2023-05-10T12:29:14;20.32;28.58
79489;SHT31;68949;53.176;18.088;2023-05-10T12:31:50;20.49;29.47
79489;SHT31;68949;53.176;18.088;2023-05-10T12:34:25;20.62;28.98
79489;SHT31;68949;53.176;18.088;2023-05-10T12:36:53;20.65;28.21
79489;SHT31;68949;53.176;18.088;2023-05-10T12:39:21;20.64;28.89
79489;SHT31;68949;53.176;18.088;2023-05-10T12:41:48;20.66;28.08
79489;SHT31;68949;53.176;18.088;2023-05-10T12:44:15;20.56;27.37
79489;SHT31;68949;53.176;18.088;2023-05-10T12:46:41;20.52;28.17
79489;SHT31;68949;53.176;18.088;2023-05-10T12:49:08;20.64;29.25
79489;SHT31;68949;53.176;18.088;2023-05-10T12:51:35;20.70;28.65
79489;SHT31;68949;53.176;18.088;2023-05-10T12:54:02;20.72;28.55
79489;SHT31;68949;53.176;18.088;2023-05-10T12:56:30;20.66;27.06
79489;SHT31;68949;53.176;18.088;2023-05-10T12:58:56;20.63;27.37
79489;SHT31;68949;53.176;18.088;2023-05-10T13:01:23;20.62;27.27
79489;SHT31;68949;53.176;18.088;2023-05-10T13:03:50;20.65;27.49
79489;SHT31;68949;53.176;18.088;2023-05-10T13:06:16;20.62;27.70
79489;SHT31;68949;53.176;18.088;2023-05-10T13:08:43;20.57;27.14
79489;SHT31;68949;53.176;18.088;2023-05-10T13:11:10;20.52;26.75
79489;SHT31;68949;53.176;18.088;2023-05-10T13:13:36;20.55;27.65
79489;SHT31;68949;53.176;18.088;2023-05-10T13:16:03;20.59;26.60
79489;SHT31;68949;53.176;18.088;2023-05-10T13:18:30;20.52;26.38
79489;SHT31;68949;53.176;18.088;2023-05-10T13:20:57;20.49;27.32
79489;SHT31;68949;53.176;18.088;2023-05-10T13:23:24;20.57;28.23
79489;SHT31;68949;53.176;18.088;2023-05-10T13:25:50;20.65;28.37
79489;SHT31;68949;53.176;18.088;2023-05-10T13:28:17;20.69;27.93
79489;SHT31;68949;53.176;18.088;2023-05-10T13:30:44;20.67;27.54
79489;SHT31;68949;53.176;18.088;2023-05-10T13:33:11;20.59;27.39
79489;SHT31;68949;53.176;18.088;2023-05-10T13:35:38;20.54;27.57
79489;SHT31;68949;53.176;18.088;2023-05-10T13:38:04;20.52;27.12
79489;SHT31;68949;53.176;18.088;2023-05-10T13:40:34;20.51;27.21
79489;SHT31;68949;53.176;18.088;2023-05-10T13:43:02;20.53;27.21
79489;SHT31;68949;53.176;18.088;2023-05-10T13:45:29;20.49;26.74
79489;SHT31;68949;53.176;18.088;2023-05-10T13:47:55;20.44;27.79
79489;SHT31;68949;53.176;18.088;2023-05-10T13:50:22;20.48;28.13
79489;SHT31;68949;53.176;18.088;2023-05-10T13:52:49;20.47;27.89
79489;SHT31;68949;53.176;18.088;2023-05-10T13:55:16;20.40;27.90
79489;SHT31;68949;53.176;18.088;2023-05-10T13:57:42;20.41;28.80
79489;SHT31;68949;53.176;18.088;2023-05-10T14:00:09;20.49;29.14
79489;SHT31;68949;53.176;18.088;2023-05-10T14:02:37;20.56;29.55
79489;SHT31;68949;53.176;18.088;2023-05-10T14:05:04;20.63;29.62
79489;SHT31;68949;53.176;18.088;2023-05-10T14:07:31;20.69;29.36
79489;SHT31;68949;53.176;18.088;2023-05-10T14:09:58;20.72;28.72
79489;SHT31;68949;53.176;18.088;2023-05-10T14:12:25;20.72;28.98
79489;SHT31;68949;53.176;18.088;2023-05-10T14:14:52;20.71;29.10
79489;SHT31;68949;53.176;18.088;2023-05-10T14:17:18;20.67;29.04
79489;SHT31;68949;53.176;18.088;2023-05-10T14:19:45;20.61;28.88
79489;SHT31;68949;53.176;18.088;2023-05-10T14:22:12;20.58;29.01
79489;SHT31;68949;53.176;18.088;2023-05-10T14:24:39;20.58;29.15
79489;SHT31;68949;53.176;18.088;2023-05-10T14:27:05;20.51;28.48
79489;SHT31;68949;53.176;18.088;2023-05-10T14:29:35;20.47;28.73
79489;SHT31;68949;53.176;18.088;2023-05-10T14:32:02;20.48;28.83
79489;SHT31;68949;53.176;18.088;2023-05-10T14:34:29;20.50;29.18
79489;SHT31;68949;53.176;18.088;2023-05-10T14:36:56;20.53;29.95
79489;SHT31;68949;53.176;18.088;2023-05-10T14:39:22;20.62;30.28
79489;SHT31;68949;53.176;18.088;2023-05-10T14:41:49;20.69;30.13
79489;SHT31;68949;53.176;18.088;2023-05-10T14:44:17;20.77;30.58
79489;SHT31;68949;53.176;18.088;2023-05-10T14:46:44;20.82;29.51
79489;SHT31;68949;53.176;18.088;2023-05-10T14:49:11;20.77;28.93
79489;SHT31;68949;53.176;18.088;2023-05-10T14:51:38;20.67;29.06
79489;SHT31;68949;53.176;18.088;2023-05-10T14:54:05;20.63;29.18
79489;SHT31;68949;53.176;18.088;2023-05-10T14:56:31;20.55;29.13
79489;SHT31;68949;53.176;18.088;2023-05-10T14:58:58;20.50;29.75
79489;SHT31;68949;53.176;18.088;2023-05-10T15:01:26;20.45;29.16
79489;SHT31;68949;53.176;18.088;2023-05-10T15:03:53;20.36;29.40
79489;SHT31;68949;53.176;18.088;2023-05-10T15:06:23;20.33;29.75
79489;SHT31;68949;53.176;18.088;2023-05-10T15:08:57;20.41;30.13
79489;SHT31;68949;53.176;18.088;2023-05-10T15:11:24;20.40;29.52
79489;SHT31;68949;53.176;18.088;2023-05-10T15:13:51;20.37;29.38
79489;SHT31;68949;53.176;18.088;2023-05-10T15:16:18;20.32;29.51
79489;SHT31;68949;53.176;18.088;2023-05-10T15:18:45;20.35;29.99
79489;SHT31;68949;53.176;18.088;2023-05-10T15:21:12;20.40;30.48
79489;SHT31;68949;53.176;18.088;2023-05-10T15:23:39;20.48;30.08
79489;SHT31;68949;53.176;18.088;2023-05-10T15:26:06;20.46;30.01
79489;SHT31;68949;53.176;18.088;2023-05-10T15:28:32;20.44;30.09
79489;SHT31;68949;53.176;18.088;2023-05-10T15:30:59;20.38;29.78
79489;SHT31;68949;53.176;18.088;2023-05-10T15:33:26;20.36;29.93
79489;SHT31;68949;53.176;18.088;2023-05-10T15:35:53;20.38;29.80
79489;SHT31;68949;53.176;18.088;2023-05-10T15:38:20;20.37;29.71
79489;SHT31;68949;53.176;18.088;2023-05-10T15:40:47;20.36;29.67
79489;SHT31;68949;53.176;18.088;2023-05-10T15:43:14;20.34;30.00
79489;SHT31;68949;53.176;18.088;2023-05-10T15:45:41;20.33;29.51
79489;SHT31;68949;53.176;18.088;2023-05-10T15:48:08;20.25;29.39
79489;SHT31;68949;53.176;18.088;2023-05-10T15:50:34;20.20;29.73
79489;SHT31;68949;53.176;18.088;2023-05-10T15:53:01;20.18;30.01
79489;SHT31;68949;53.176;18.088;2023-05-10T15:55:28;20.18;29.96
79489;SHT31;68949;53.176;18.088;2023-05-10T15:57:55;20.22;29.92
79489;SHT31;68949;53.176;18.088;2023-05-10T16:00:21;20.26;30.27
79489;SHT31;68949;53.176;18.088;2023-05-10T16:02:48;20.26;29.93
79489;SHT31;68949;53.176;18.088;2023-05-10T16:05:19;20.25;29.93